createdAt,value
2023-02-19T00:02:40.213Z,7.50
2023-02-19T00:08:48.970Z,4.20
2023-02-19T00:14:12.317Z,5.20
2023-02-19T00:20:16.336Z,5.20
2023-02-19T00:26:46.442Z,9.70
2023-02-19T00:32:51.108Z,9.40
2023-02-19T00:38:59.011Z,8.30
2023-02-19T00:46:00.251Z,10.60
2023-02-19T00:52:22.969Z,9.60
2023-02-19T00:58:28.839Z,11.40
2023-02-19T01:05:12.060Z,8.20
2023-02-19T01:11:57.509Z,9.60
2023-02-19T01:18:43.176Z,9.50
2023-02-19T01:25:46.913Z,7.00
2023-02-19T01:32:54.901Z,6.40
2023-02-19T01:40:08.501Z,7.00
2023-02-19T01:46:51.831Z,6.10
2023-02-19T01:53:51.539Z,5.70
2023-02-19T02:00:55.230Z,8.10
2023-02-19T02:07:56.692Z,6.10
2023-02-19T02:15:01.323Z,6.60
2023-02-19T02:22:01.543Z,7.40
2023-02-19T02:29:18.091Z,9.60
2023-02-19T02:36:30.428Z,13.20
2023-02-19T02:43:33.990Z,15.40
2023-02-19T02:50:37.510Z,11.80
2023-02-19T02:57:41.273Z,9.40
2023-02-19T03:04:47.556Z,5.50
2023-02-19T03:12:24.572Z,4.70
2023-02-19T03:19:06.388Z,4.70
2023-02-19T03:26:24.824Z,4.40
2023-02-19T03:33:52.440Z,8.00
2023-02-19T03:41:01.775Z,6.90
2023-02-19T03:48:08.705Z,10.50
2023-02-19T03:55:15.399Z,7.30
2023-02-19T04:02:29.082Z,8.60
2023-02-19T04:09:32.669Z,6.10
2023-02-19T04:16:36.422Z,6.80
2023-02-19T04:23:44.036Z,7.00
2023-02-19T04:30:51.470Z,6.60
2023-02-19T04:37:54.871Z,6.50
2023-02-19T04:44:57.249Z,5.30
2023-02-19T04:52:00.874Z,5.10
2023-02-19T04:59:04.470Z,4.00
2023-02-19T05:06:07.727Z,5.40
2023-02-19T05:13:11.316Z,4.40
2023-02-19T05:20:14.806Z,5.70
2023-02-19T05:27:18.360Z,7.50
2023-02-19T05:34:22.040Z,6.80
2023-02-19T05:41:25.711Z,9.40
2023-02-19T05:48:23.147Z,11.40
2023-02-19T05:55:28.875Z,12.20
2023-02-19T06:02:32.729Z,11.50
2023-02-19T06:09:37.458Z,10.00
2023-02-19T06:16:41.139Z,13.00
2023-02-19T06:23:49.217Z,14.00
2023-02-19T06:30:52.944Z,13.10
2023-02-19T06:37:57.767Z,11.30
2023-02-19T06:45:01.361Z,11.30
2023-02-19T06:52:04.028Z,12.60
2023-02-19T06:58:42.019Z,12.60
2023-02-19T07:05:46.823Z,8.50
2023-02-19T07:12:51.491Z,12.30
2023-02-19T07:19:55.080Z,11.60
2023-02-19T07:27:18.579Z,18.60
2023-02-19T07:34:46.183Z,12.20
2023-02-19T07:41:55.803Z,11.90
2023-02-19T07:48:52.884Z,15.30
2023-02-19T07:55:51.277Z,13.70
2023-02-19T08:02:56.020Z,13.50
2023-02-19T08:09:59.672Z,13.50
2023-02-19T08:17:03.518Z,20.00
2023-02-19T08:24:08.213Z,18.30
2023-02-19T08:31:13.984Z,19.10
2023-02-19T08:38:26.615Z,17.50
2023-02-19T08:45:30.316Z,13.60
2023-02-19T08:52:34.610Z,11.20
2023-02-19T08:59:38.379Z,13.00
2023-02-19T09:06:32.959Z,10.00
2023-02-19T09:13:22.055Z,6.70
2023-02-19T09:20:22.460Z,8.40
2023-02-19T09:27:19.125Z,12.60
2023-02-19T09:33:38.817Z,7.60
2023-02-19T09:40:33.667Z,7.50
2023-02-19T09:47:33.481Z,11.50
2023-02-19T09:54:10.831Z,10.10
2023-02-19T10:01:00.647Z,6.40
2023-02-19T10:07:53.762Z,5.00
2023-02-19T10:14:37.179Z,3.80
2023-02-19T10:21:26.099Z,3.20
2023-02-19T10:28:32.528Z,7.00
2023-02-19T10:35:18.335Z,6.10
2023-02-19T10:42:21.817Z,5.50
2023-02-19T10:49:34.728Z,6.40
2023-02-19T10:56:47.632Z,6.30
2023-02-19T11:03:54.051Z,4.00
2023-02-19T11:10:50.243Z,3.70
2023-02-19T11:17:40.744Z,4.40
2023-02-19T11:24:47.169Z,4.10
2023-02-19T11:31:40.233Z,4.40
2023-02-19T11:38:34.954Z,6.70
2023-02-19T11:45:49.384Z,2.70
2023-02-19T11:53:00.949Z,2.50
2023-02-19T12:00:07.648Z,6.90
2023-02-19T12:06:49.307Z,10.10
2023-02-19T12:13:24.798Z,7.60
2023-02-19T12:20:11.519Z,5.30
2023-02-19T12:27:37.132Z,6.10
2023-02-19T12:34:20.734Z,7.30
2023-02-19T12:41:57.274Z,7.00
2023-02-19T12:48:49.601Z,6.20
2023-02-19T12:55:53.165Z,7.20
2023-02-19T13:10:19.356Z,9.50
2023-02-19T13:17:29.833Z,7.30
2023-02-19T13:24:19.199Z,5.40
2023-02-19T13:31:06.720Z,8.00
2023-02-19T13:37:42.143Z,6.70
2023-02-19T13:44:47.274Z,10.20
2023-02-19T13:51:58.366Z,11.20
2023-02-19T13:59:16.026Z,6.60
2023-02-19T14:06:10.787Z,14.20
2023-02-19T14:13:07.276Z,11.30
2023-02-19T14:20:13.872Z,11.10
2023-02-19T14:27:10.632Z,13.00
2023-02-19T14:34:20.157Z,9.20
2023-02-19T14:41:42.513Z,9.90
2023-02-19T14:48:50.845Z,9.80
2023-02-19T14:55:57.476Z,11.50
2023-02-19T15:02:54.847Z,10.90
2023-02-19T15:09:37.982Z,8.30
2023-02-19T15:16:25.818Z,12.20
2023-02-19T15:23:27.490Z,12.10
2023-02-19T15:30:19.809Z,16.50
2023-02-19T15:37:12.931Z,11.50
2023-02-19T15:44:24.606Z,9.70
2023-02-19T15:51:16.177Z,13.10
2023-02-19T15:58:22.496Z,13.30
2023-02-19T16:05:25.757Z,19.10
2023-02-19T16:12:34.763Z,17.40
2023-02-19T16:19:39.939Z,14.50
2023-02-19T16:26:33.995Z,16.10
2023-02-19T16:33:59.286Z,11.20
2023-02-19T16:40:31.638Z,13.50
2023-02-19T16:46:43.947Z,18.20
2023-02-19T16:52:59.170Z,17.80
2023-02-19T16:59:30.356Z,20.80
2023-02-19T17:06:34.507Z,21.70
2023-02-19T17:13:08.467Z,17.30
2023-02-19T17:19:28.025Z,12.80
2023-02-19T17:26:30.743Z,19.00
2023-02-19T17:33:32.940Z,21.50
2023-02-19T17:40:35.968Z,21.00
2023-02-19T17:47:06.498Z,22.30
2023-02-19T17:53:55.877Z,17.10
2023-02-19T18:00:53.105Z,17.40
2023-02-19T18:07:27.615Z,14.00
2023-02-19T18:14:04.697Z,21.40
2023-02-19T18:20:40.785Z,17.90
2023-02-19T18:26:33.601Z,19.60
2023-02-19T18:31:36.982Z,16.20
2023-02-19T18:36:38.568Z,19.10
2023-02-19T18:41:40.171Z,14.60
2023-02-19T18:46:41.725Z,18.00
2023-02-19T18:51:43.633Z,21.50
2023-02-19T18:56:45.965Z,18.90
2023-02-19T19:01:47.334Z,22.60
2023-02-19T19:06:48.893Z,24.00
2023-02-19T19:12:49.953Z,25.30
2023-02-19T19:19:10.993Z,23.60
2023-02-19T19:25:32.002Z,23.10
2023-02-19T19:30:35.618Z,27.30
2023-02-19T19:35:36.930Z,30.30
2023-02-19T19:41:37.943Z,28.60
2023-02-19T19:47:59.111Z,24.30
2023-02-19T19:54:20.281Z,27.90
2023-02-19T20:00:43.827Z,34.90
2023-02-19T20:07:06.432Z,32.90
2023-02-19T20:13:27.809Z,28.00
2023-02-19T20:19:08.847Z,36.00
2023-02-19T20:24:16.345Z,28.20
2023-02-19T20:29:17.874Z,26.10
2023-02-19T20:35:19.010Z,35.60
2023-02-19T20:41:07.172Z,28.90
2023-02-19T20:47:18.350Z,26.80
2023-02-19T20:52:40.020Z,29.10
2023-02-19T20:58:41.294Z,29.60
2023-02-19T21:05:11.379Z,28.30
2023-02-19T21:16:33.646Z,30.70
2023-02-19T21:22:34.665Z,28.20
2023-02-19T21:28:55.837Z,22.20
2023-02-19T21:35:16.863Z,32.20
2023-02-19T21:41:37.861Z,24.30
2023-02-19T21:47:39.062Z,24.00
2023-02-19T21:53:40.135Z,27.30
2023-02-19T22:00:01.340Z,26.30
2023-02-19T22:06:22.504Z,28.90
2023-02-19T22:11:27.545Z,30.30
2023-02-19T22:16:31.701Z,26.90
2023-02-19T22:21:33.223Z,28.30
2023-02-19T22:26:35.325Z,25.60
2023-02-19T22:31:36.854Z,26.40
2023-02-19T22:36:39.822Z,28.30
2023-02-19T22:41:42.400Z,30.60
2023-02-19T22:46:54.582Z,24.00
2023-02-19T22:52:07.762Z,29.60
2023-02-19T22:57:09.405Z,27.10
2023-02-19T23:02:11.077Z,30.10
2023-02-19T23:07:12.565Z,27.10
2023-02-19T23:12:14.033Z,27.50
2023-02-19T23:17:15.268Z,33.80
2023-02-19T23:22:16.759Z,39.30
2023-02-19T23:27:18.085Z,46.30
2023-02-19T23:32:20.512Z,31.70
2023-02-19T23:37:22.013Z,26.60
2023-02-19T23:42:23.485Z,29.20
2023-02-19T23:47:26.037Z,29.40
2023-02-19T23:52:27.634Z,34.60
2023-02-19T23:57:28.946Z,27.50
